createdAt,value
2018-03-07T00:00:52.572Z,2.00
2018-03-07T00:03:25.199Z,2.00
2018-03-07T00:05:57.728Z,2.10
2018-03-07T00:08:29.877Z,2.10
2018-03-07T00:11:01.136Z,2.00
2018-03-07T00:13:32.312Z,2.10
2018-03-07T00:16:04.109Z,2.00
2018-03-07T00:18:35.147Z,1.90
2018-03-07T00:24:41.403Z,1.70
2018-03-07T00:27:13.170Z,1.60
2018-03-07T00:29:44.154Z,1.70
2018-03-07T00:32:15.981Z,1.70
2018-03-07T00:34:47.767Z,1.70
2018-03-07T00:37:19.243Z,1.80
2018-03-07T00:39:50.560Z,1.80
2018-03-07T00:42:29.276Z,1.70
2018-03-07T00:45:00.766Z,1.70
2018-03-07T00:47:32.799Z,1.60
2018-03-07T00:50:04.673Z,1.60
2018-03-07T00:52:37.833Z,1.60
2018-03-07T00:55:09.636Z,1.50
2018-03-07T00:57:40.299Z,1.50
2018-03-07T01:00:11.394Z,1.50
2018-03-07T01:02:43.620Z,1.60
2018-03-07T01:05:15.318Z,1.60
2018-03-07T01:07:45.839Z,1.50
2018-03-07T01:10:16.428Z,1.60
2018-03-07T01:12:47.101Z,1.50
2018-03-07T01:15:20.094Z,1.60
2018-03-07T01:17:51.243Z,1.60
2018-03-07T01:20:21.894Z,1.50
2018-03-07T01:22:57.107Z,1.50
2018-03-07T01:25:27.497Z,1.40
2018-03-07T01:27:57.906Z,1.50
2018-03-07T01:30:28.806Z,1.50
2018-03-07T01:32:59.640Z,1.50
2018-03-07T01:35:29.564Z,1.50
2018-03-07T01:38:01.009Z,1.50
2018-03-07T01:40:31.732Z,1.50
2018-03-07T01:43:01.828Z,1.50
2018-03-07T01:45:32.050Z,1.50
2018-03-07T01:48:02.109Z,1.50
2018-03-07T01:50:32.065Z,1.50
2018-03-07T01:53:06.477Z,1.50
2018-03-07T01:58:29.042Z,1.50
2018-03-07T02:01:00.437Z,1.60
2018-03-07T02:03:34.548Z,1.50
2018-03-07T02:06:21.206Z,1.50
2018-03-07T02:08:51.215Z,1.50
2018-03-07T02:11:22.747Z,1.50
2018-03-07T02:13:52.575Z,1.40
2018-03-07T02:16:23.786Z,1.30
2018-03-07T02:18:56.107Z,1.30
2018-03-07T02:21:26.580Z,1.40
2018-03-07T02:23:56.623Z,1.40
2018-03-07T02:26:26.671Z,1.40
2018-03-07T02:28:56.536Z,1.40
2018-03-07T02:31:27.798Z,1.40
2018-03-07T02:33:59.494Z,1.40
2018-03-07T02:36:42.074Z,1.40
2018-03-07T02:39:12.961Z,1.40
2018-03-07T02:41:43.194Z,1.40
2018-03-07T02:44:14.772Z,1.40
2018-03-07T02:46:44.184Z,1.30
2018-03-07T02:49:14.138Z,1.30
2018-03-07T02:51:44.225Z,1.30
2018-03-07T02:54:13.987Z,1.30
2018-03-07T02:56:57.877Z,1.20
2018-03-07T02:59:27.403Z,1.20
2018-03-07T03:01:57.647Z,1.20
2018-03-07T03:04:27.143Z,1.10
2018-03-07T03:06:56.627Z,1.10
2018-03-07T03:09:26.243Z,1.00
2018-03-07T03:11:56.351Z,1.00
2018-03-07T03:14:27.004Z,1.00
2018-03-07T03:16:57.455Z,1.00
2018-03-07T03:19:27.629Z,1.00
2018-03-07T03:21:58.776Z,1.00
2018-03-07T03:24:29.300Z,1.00
2018-03-07T03:26:59.884Z,1.00
2018-03-07T03:29:29.582Z,1.10
2018-03-07T03:31:59.103Z,1.10
2018-03-07T03:34:28.704Z,1.10
2018-03-07T03:36:58.159Z,1.10
2018-03-07T03:39:28.613Z,1.20
2018-03-07T03:41:58.055Z,1.20
2018-03-07T03:44:27.668Z,1.30
2018-03-07T03:46:57.226Z,1.30
2018-03-07T03:49:27.911Z,1.30
2018-03-07T03:51:57.496Z,1.20
2018-03-07T03:54:27.874Z,1.40
2018-03-07T03:56:58.286Z,1.70
2018-03-07T03:59:28.161Z,1.60
2018-03-07T04:01:58.429Z,1.80
2018-03-07T04:04:27.897Z,1.80
2018-03-07T04:06:57.475Z,2.00
2018-03-07T04:09:27.548Z,2.10
2018-03-07T04:11:57.779Z,2.20
2018-03-07T04:14:27.160Z,2.10
2018-03-07T04:16:56.737Z,2.20
2018-03-07T04:19:27.886Z,2.40
2018-03-07T04:21:57.257Z,2.30
2018-03-07T04:24:29.310Z,2.50
2018-03-07T04:26:58.803Z,2.50
2018-03-07T04:29:28.399Z,2.60
2018-03-07T04:31:58.573Z,2.70
2018-03-07T04:34:28.725Z,2.80
2018-03-07T04:36:58.532Z,2.70
2018-03-07T04:39:31.492Z,2.90
2018-03-07T04:42:02.559Z,2.90
2018-03-07T04:44:31.987Z,2.90
2018-03-07T04:47:02.542Z,2.90
2018-03-07T04:49:32.893Z,2.90
2018-03-07T04:52:02.341Z,2.90
2018-03-07T04:54:31.726Z,3.00
2018-03-07T04:57:01.523Z,3.00
2018-03-07T04:59:32.545Z,3.10
2018-03-07T05:02:03.215Z,3.10
2018-03-07T05:04:33.891Z,3.20
2018-03-07T05:07:06.417Z,3.10
2018-03-07T05:09:38.910Z,3.10
2018-03-07T05:12:10.122Z,3.20
2018-03-07T05:14:39.556Z,3.10
2018-03-07T05:17:14.278Z,3.10
2018-03-07T05:19:44.741Z,3.00
2018-03-07T05:22:14.438Z,3.00
2018-03-07T05:24:44.246Z,3.00
2018-03-07T05:27:15.420Z,3.00
2018-03-07T05:29:49.123Z,3.00
2018-03-07T05:32:22.372Z,3.00
2018-03-07T05:34:53.243Z,2.90
2018-03-07T05:38:37.890Z,3.00
2018-03-07T05:41:08.393Z,2.90
2018-03-07T05:43:38.783Z,3.20
2018-03-07T05:46:11.305Z,3.20
2018-03-07T05:48:45.301Z,3.10
2018-03-07T05:51:16.177Z,3.20
2018-03-07T05:53:46.862Z,3.20
2018-03-07T05:56:22.433Z,3.20
2018-03-07T05:58:53.319Z,3.10
2018-03-07T06:01:25.933Z,3.20
2018-03-07T06:03:56.974Z,3.20
2018-03-07T06:06:28.803Z,3.20
2018-03-07T06:09:00.954Z,3.10
2018-03-07T06:11:33.189Z,3.20
2018-03-07T06:14:10.490Z,3.20
2018-03-07T06:16:41.362Z,3.20
2018-03-07T06:19:12.690Z,3.30
2018-03-07T06:21:44.798Z,3.30
2018-03-07T06:24:16.178Z,3.30
2018-03-07T06:26:47.734Z,3.30
2018-03-07T06:29:19.506Z,3.30
2018-03-07T06:31:51.604Z,3.30
2018-03-07T06:34:24.910Z,3.30
2018-03-07T06:36:56.084Z,3.30
2018-03-07T06:39:28.170Z,3.40
2018-03-07T06:42:00.440Z,3.30
2018-03-07T06:44:32.142Z,3.40
2018-03-07T06:47:03.876Z,3.50
2018-03-07T06:49:36.080Z,3.50
2018-03-07T06:52:08.385Z,3.50
2018-03-07T06:54:40.004Z,3.40
2018-03-07T06:57:12.415Z,3.50
2018-03-07T06:59:49.787Z,3.50
2018-03-07T07:02:22.144Z,3.40
2018-03-07T07:04:53.742Z,3.40
2018-03-07T07:07:26.104Z,3.40
2018-03-07T07:09:58.845Z,3.40
2018-03-07T07:12:31.970Z,3.30
2018-03-07T07:15:04.104Z,3.30
2018-03-07T07:17:37.006Z,3.30
2018-03-07T07:20:12.427Z,3.30
2018-03-07T07:22:44.738Z,3.30
2018-03-07T07:25:17.047Z,3.30
2018-03-07T07:27:49.517Z,3.30
2018-03-07T07:30:21.721Z,3.40
2018-03-07T07:32:53.452Z,3.40
2018-03-07T07:35:25.081Z,3.40
2018-03-07T07:37:57.167Z,3.40
2018-03-07T07:40:30.136Z,3.30
2018-03-07T07:43:02.429Z,3.30
2018-03-07T07:45:35.280Z,3.40
2018-03-07T07:48:07.481Z,3.40
2018-03-07T07:50:39.500Z,3.40
2018-03-07T07:53:10.900Z,3.40
2018-03-07T07:55:42.846Z,3.40
2018-03-07T07:58:15.468Z,3.40
2018-03-07T08:00:47.606Z,3.40
2018-03-07T08:03:20.289Z,3.40
2018-03-07T08:05:52.741Z,3.40
2018-03-07T08:08:24.839Z,3.40
2018-03-07T08:10:56.747Z,3.40
2018-03-07T08:13:29.198Z,3.50
2018-03-07T08:16:02.696Z,3.60
2018-03-07T08:18:36.557Z,3.80
2018-03-07T08:21:08.381Z,3.90
2018-03-07T08:23:39.751Z,3.80
2018-03-07T08:26:11.212Z,3.80
2018-03-07T08:28:42.453Z,3.80
2018-03-07T08:31:18.917Z,3.80
2018-03-07T08:33:50.154Z,3.80
2018-03-07T08:36:27.513Z,3.80
2018-03-07T08:38:58.720Z,3.80
2018-03-07T08:41:32.832Z,3.80
2018-03-07T08:44:03.994Z,3.80
2018-03-07T08:46:36.081Z,4.00
2018-03-07T08:49:07.706Z,3.90
2018-03-07T08:51:40.122Z,4.10
2018-03-07T08:54:13.312Z,4.10
2018-03-07T08:56:46.319Z,4.00
2018-03-07T08:59:18.225Z,4.10
2018-03-07T09:01:49.718Z,4.00
2018-03-07T09:04:23.047Z,4.20
2018-03-07T09:06:55.055Z,4.20
2018-03-07T09:09:27.025Z,4.30
2018-03-07T09:11:58.985Z,4.20
2018-03-07T09:14:30.360Z,4.30
2018-03-07T09:17:02.068Z,4.50
2018-03-07T09:19:34.800Z,4.60
2018-03-07T09:22:07.307Z,4.90
2018-03-07T09:24:38.610Z,4.80
2018-03-07T09:27:10.309Z,4.90
2018-03-07T09:29:42.283Z,5.10
2018-03-07T09:32:14.232Z,5.10
2018-03-07T09:34:49.664Z,5.00
2018-03-07T09:37:22.219Z,5.30
2018-03-07T09:39:54.724Z,5.40
2018-03-07T09:42:29.079Z,5.40
2018-03-07T09:46:03.249Z,6.10
2018-03-07T09:48:34.329Z,6.60
2018-03-07T09:51:07.987Z,6.70
2018-03-07T09:53:40.988Z,6.70
2018-03-07T09:56:13.030Z,6.70
2018-03-07T09:58:46.259Z,7.80
2018-03-07T10:01:18.507Z,8.50
2018-03-07T10:03:52.862Z,8.40
2018-03-07T10:06:24.331Z,8.90
2018-03-07T10:08:55.379Z,9.20
2018-03-07T10:11:29.481Z,9.50
2018-03-07T10:14:02.395Z,10.20
2018-03-07T10:16:34.222Z,10.50
2018-03-07T10:19:06.898Z,10.40
2018-03-07T10:21:39.987Z,10.70
2018-03-07T10:24:12.316Z,10.70
2018-03-07T10:26:47.794Z,11.00
2018-03-07T10:29:20.342Z,11.40
2018-03-07T10:31:58.236Z,11.70
2018-03-07T10:34:33.043Z,12.10
2018-03-07T10:37:04.358Z,12.00
2018-03-07T10:39:35.830Z,12.30
2018-03-07T10:42:08.269Z,12.40
2018-03-07T10:44:40.833Z,12.40
2018-03-07T10:47:12.718Z,12.60
2018-03-07T10:49:45.549Z,12.50
2018-03-07T10:52:17.868Z,12.70
2018-03-07T10:54:50.839Z,12.60
2018-03-07T10:57:22.262Z,12.90
2018-03-07T10:59:53.461Z,12.90
2018-03-07T11:02:25.372Z,13.10
2018-03-07T11:04:57.467Z,13.40
2018-03-07T11:07:28.518Z,13.50
2018-03-07T11:12:17.580Z,13.60
2018-03-07T11:14:48.920Z,13.50
2018-03-07T11:17:22.197Z,13.30
2018-03-07T11:19:54.298Z,13.00
2018-03-07T11:22:27.994Z,12.90
2018-03-07T11:24:59.673Z,12.80
2018-03-07T11:27:32.128Z,13.30
2018-03-07T11:30:12.824Z,13.30
2018-03-07T11:32:45.462Z,13.20
2018-03-07T11:35:18.351Z,13.10
2018-03-07T11:37:56.128Z,12.90
2018-03-07T11:40:29.690Z,12.90
2018-03-07T11:43:01.899Z,12.50
2018-03-07T11:45:34.186Z,12.50
2018-03-07T11:48:19.393Z,12.80
2018-03-07T11:50:50.408Z,12.70
2018-03-07T11:53:23.242Z,11.90
2018-03-07T11:55:53.909Z,11.90
2018-03-07T11:58:25.109Z,11.70
2018-03-07T12:00:56.599Z,11.50
2018-03-07T12:03:27.386Z,11.50
2018-03-07T12:05:58.163Z,11.40
2018-03-07T12:08:31.228Z,11.30
2018-03-07T12:11:01.891Z,11.30
2018-03-07T12:13:32.754Z,11.80
2018-03-07T12:16:04.386Z,11.70
2018-03-07T12:18:36.787Z,11.70
2018-03-07T12:21:09.073Z,11.90
2018-03-07T12:23:42.431Z,12.00
2018-03-07T12:26:15.612Z,11.60
2018-03-07T12:28:47.753Z,11.50
2018-03-07T12:31:18.639Z,11.30
2018-03-07T12:33:49.422Z,11.60
2018-03-07T12:36:26.690Z,11.30
2018-03-07T12:38:59.202Z,11.10
2018-03-07T12:41:32.060Z,11.00
2018-03-07T12:44:04.333Z,10.50
2018-03-07T12:46:36.072Z,10.60
2018-03-07T12:49:09.019Z,10.70
2018-03-07T12:51:40.805Z,10.60
2018-03-07T12:54:12.889Z,10.50
2018-03-07T12:56:45.713Z,10.50
2018-03-07T12:59:17.581Z,9.90
2018-03-07T13:01:54.616Z,9.80
2018-03-07T13:04:25.442Z,9.70
2018-03-07T13:06:56.158Z,9.50
2018-03-07T13:09:29.912Z,9.40
2018-03-07T13:12:01.707Z,9.20
2018-03-07T13:14:39.670Z,8.90
2018-03-07T13:17:11.651Z,8.80
2018-03-07T13:19:42.984Z,8.70
2018-03-07T13:22:14.657Z,8.80
2018-03-07T13:24:46.500Z,8.90
2018-03-07T13:27:18.081Z,8.50
2018-03-07T13:29:49.992Z,8.40
2018-03-07T13:32:24.771Z,8.30
2018-03-07T13:34:56.322Z,8.30
2018-03-07T13:37:28.082Z,8.20
2018-03-07T13:39:59.740Z,8.20
2018-03-07T13:42:30.558Z,8.00
2018-03-07T13:45:02.129Z,7.90
2018-03-07T13:47:36.575Z,7.80
2018-03-07T13:50:08.280Z,7.70
2018-03-07T13:52:39.503Z,8.00
2018-03-07T13:55:19.195Z,8.30
2018-03-07T13:57:51.667Z,8.30
2018-03-07T14:00:22.472Z,8.40
2018-03-07T14:02:53.319Z,8.50
2018-03-07T14:05:23.920Z,8.50
2018-03-07T14:07:57.335Z,8.50
2018-03-07T14:10:28.665Z,8.30
2018-03-07T14:13:00.165Z,8.30
2018-03-07T14:15:32.799Z,8.20
2018-03-07T14:18:04.289Z,8.50
2018-03-07T14:20:35.047Z,9.00
2018-03-07T14:23:08.318Z,8.90
2018-03-07T14:25:42.235Z,9.20
2018-03-07T14:28:29.269Z,9.20
2018-03-07T14:33:46.101Z,8.30
2018-03-07T14:36:18.420Z,8.10
2018-03-07T14:38:52.591Z,8.00
2018-03-07T14:41:25.906Z,7.80
2018-03-07T14:43:57.840Z,7.70
2018-03-07T14:46:28.533Z,7.60
2018-03-07T14:48:59.289Z,7.70
2018-03-07T14:51:45.720Z,7.50
2018-03-07T14:54:18.587Z,7.50
2018-03-07T14:56:49.405Z,7.60
2018-03-07T14:59:22.213Z,7.60
2018-03-07T15:01:53.659Z,7.50
2018-03-07T15:04:25.046Z,7.60
2018-03-07T15:06:56.440Z,7.50
2018-03-07T15:09:27.740Z,7.60
2018-03-07T15:11:58.537Z,7.50
2018-03-07T15:14:29.106Z,7.40
2018-03-07T15:16:59.648Z,7.40
2018-03-07T15:19:30.768Z,7.30
2018-03-07T15:22:03.145Z,7.20
2018-03-07T15:24:35.715Z,7.10
2018-03-07T15:27:13.929Z,7.10
2018-03-07T15:29:46.942Z,7.00
2018-03-07T15:32:21.337Z,7.10
2018-03-07T15:34:52.595Z,7.10
2018-03-07T15:37:24.727Z,7.00
2018-03-07T15:39:55.831Z,6.90
2018-03-07T15:42:29.496Z,6.90
2018-03-07T15:44:59.990Z,7.00
2018-03-07T15:47:30.336Z,6.90
2018-03-07T15:50:02.608Z,6.90
2018-03-07T15:52:34.641Z,6.80
2018-03-07T15:55:06.174Z,6.80
2018-03-07T15:57:36.968Z,6.70
2018-03-07T16:00:10.714Z,6.70
2018-03-07T16:02:43.785Z,6.70
2018-03-07T16:05:15.800Z,6.80
2018-03-07T16:07:55.276Z,6.80
2018-03-07T16:10:26.980Z,6.70
2018-03-07T16:13:00.782Z,6.70
2018-03-07T16:15:31.130Z,6.70
2018-03-07T16:18:02.910Z,6.60
2018-03-07T16:20:35.565Z,6.50
2018-03-07T16:23:07.093Z,6.50
2018-03-07T16:25:37.602Z,6.40
2018-03-07T16:28:10.876Z,6.60
2018-03-07T16:30:42.542Z,6.60
2018-03-07T16:33:18.813Z,6.50
2018-03-07T16:35:49.520Z,6.50
2018-03-07T16:38:43.139Z,6.50
2018-03-07T16:41:21.208Z,6.50
2018-03-07T16:43:52.790Z,6.40
2018-03-07T16:46:23.966Z,6.30
2018-03-07T16:48:55.217Z,6.30
2018-03-07T16:51:27.422Z,6.30
2018-03-07T16:53:59.063Z,6.20
2018-03-07T16:56:30.155Z,6.30
2018-03-07T16:59:00.713Z,6.30
2018-03-07T17:01:32.990Z,6.20
2018-03-07T17:04:03.404Z,6.20
2018-03-07T17:06:35.692Z,6.20
2018-03-07T17:09:08.386Z,6.10
2018-03-07T17:11:39.424Z,6.20
2018-03-07T17:14:11.750Z,6.20
2018-03-07T17:16:43.664Z,6.20
2018-03-07T17:19:15.676Z,6.10
2018-03-07T17:21:47.950Z,6.20
2018-03-07T17:24:19.346Z,6.10
2018-03-07T17:26:51.785Z,6.10
2018-03-07T17:29:23.540Z,6.10
2018-03-07T17:31:54.171Z,6.00
2018-03-07T17:34:25.320Z,6.10
2018-03-07T17:36:57.814Z,6.00
2018-03-07T17:39:29.940Z,6.00
2018-03-07T17:42:01.204Z,6.10
2018-03-07T17:44:33.209Z,5.90
2018-03-07T17:47:05.514Z,5.90
2018-03-07T17:49:36.890Z,6.00
2018-03-07T17:52:07.953Z,6.00
2018-03-07T17:54:40.148Z,5.90
2018-03-07T17:57:11.604Z,5.90
2018-03-07T17:59:43.090Z,5.80
2018-03-07T18:02:14.271Z,5.80
2018-03-07T18:04:47.146Z,5.90
2018-03-07T18:07:18.718Z,5.80
2018-03-07T18:09:49.549Z,5.80
2018-03-07T18:12:23.885Z,5.80
2018-03-07T18:14:55.377Z,5.90
2018-03-07T18:17:31.517Z,5.80
2018-03-07T18:20:05.957Z,5.70
2018-03-07T18:22:41.082Z,5.70
2018-03-07T18:25:11.697Z,5.70
2018-03-07T18:27:42.211Z,5.60
2018-03-07T18:30:12.562Z,5.60
2018-03-07T18:32:45.594Z,5.50
2018-03-07T18:35:16.905Z,5.60
2018-03-07T18:37:47.887Z,5.50
2018-03-07T18:40:18.888Z,5.50
2018-03-07T18:42:51.046Z,5.50
2018-03-07T18:45:22.262Z,5.50
2018-03-07T18:47:59.574Z,5.40
2018-03-07T18:50:29.861Z,5.40
2018-03-07T18:53:00.996Z,5.30
2018-03-07T18:55:31.344Z,5.30
2018-03-07T18:58:02.873Z,5.30
2018-03-07T19:00:34.327Z,5.30
2018-03-07T19:03:05.853Z,5.30
2018-03-07T19:05:36.150Z,5.30
2018-03-07T19:08:07.388Z,5.30
2018-03-07T19:10:38.698Z,5.20
2018-03-07T19:13:10.751Z,5.30
2018-03-07T19:15:41.236Z,5.20
2018-03-07T19:18:12.915Z,5.30
2018-03-07T19:20:43.304Z,5.20
2018-03-07T19:23:13.686Z,5.20
2018-03-07T19:25:45.168Z,5.20
2018-03-07T19:28:15.598Z,5.20
2018-03-07T19:30:48.799Z,5.20
2018-03-07T19:33:23.077Z,5.30
2018-03-07T19:35:55.515Z,5.30
2018-03-07T19:38:26.020Z,5.30
2018-03-07T19:40:56.544Z,5.30
2018-03-07T19:43:29.944Z,5.30
2018-03-07T19:46:01.701Z,5.30
2018-03-07T19:48:32.081Z,5.30
2018-03-07T19:51:03.422Z,5.20
2018-03-07T19:53:39.783Z,5.30
2018-03-07T19:56:11.344Z,5.20
2018-03-07T19:58:43.348Z,5.10
2018-03-07T20:01:13.766Z,5.10
2018-03-07T20:03:49.739Z,5.20
2018-03-07T20:06:23.649Z,5.20
2018-03-07T20:08:54.156Z,5.20
2018-03-07T20:11:24.609Z,5.20
2018-03-07T20:13:55.493Z,5.20
2018-03-07T20:16:28.172Z,5.20
2018-03-07T20:18:59.016Z,5.20
2018-03-07T20:21:30.093Z,5.10
2018-03-07T20:24:00.375Z,5.20
2018-03-07T20:26:31.319Z,5.20
2018-03-07T20:29:02.438Z,5.20
2018-03-07T20:31:33.707Z,5.10
2018-03-07T20:34:04.231Z,5.00
2018-03-07T20:36:36.903Z,5.10
2018-03-07T20:39:07.190Z,5.10
2018-03-07T20:41:37.904Z,5.10
2018-03-07T20:44:08.299Z,5.10
2018-03-07T20:46:38.892Z,5.00
2018-03-07T20:49:09.568Z,5.10
2018-03-07T20:51:42.309Z,5.00
2018-03-07T20:54:12.768Z,5.00
2018-03-07T20:56:44.343Z,5.00
2018-03-07T20:59:14.738Z,4.90
2018-03-07T21:01:46.281Z,5.00
2018-03-07T21:04:18.825Z,4.90
2018-03-07T21:06:50.231Z,4.90
2018-03-07T21:09:21.431Z,4.90
2018-03-07T21:11:51.898Z,4.80
2018-03-07T21:14:22.708Z,4.80
2018-03-07T21:16:53.210Z,4.80
2018-03-07T21:19:23.428Z,4.80
2018-03-07T21:21:53.795Z,4.80
2018-03-07T21:24:24.966Z,4.70
2018-03-07T21:26:56.170Z,4.70
2018-03-07T21:29:27.938Z,4.70
2018-03-07T21:31:58.673Z,4.70
2018-03-07T21:34:29.248Z,4.80
2018-03-07T21:36:59.844Z,4.80
2018-03-07T21:39:31.273Z,4.80
2018-03-07T21:42:05.412Z,4.70
2018-03-07T21:44:37.489Z,4.70
2018-03-07T21:47:09.141Z,4.70
2018-03-07T21:49:40.479Z,4.80
2018-03-07T21:52:18.057Z,4.70
2018-03-07T21:54:48.745Z,4.90
2018-03-07T21:57:19.887Z,4.90
2018-03-07T21:59:50.425Z,4.80
2018-03-07T22:02:20.765Z,4.80
2018-03-07T22:04:52.972Z,4.70
2018-03-07T22:07:24.962Z,4.70
2018-03-07T22:09:55.776Z,4.70
2018-03-07T22:12:26.552Z,4.70
2018-03-07T22:14:57.041Z,4.70
2018-03-07T22:17:27.496Z,4.60
2018-03-07T22:19:58.435Z,4.60
2018-03-07T22:22:30.546Z,4.60
2018-03-07T22:25:01.273Z,4.60
2018-03-07T22:27:34.433Z,4.60
2018-03-07T22:30:06.350Z,4.50
2018-03-07T22:32:36.857Z,4.60
2018-03-07T22:35:16.848Z,4.60
2018-03-07T22:37:47.573Z,4.60
2018-03-07T22:40:18.547Z,4.60
2018-03-07T22:42:49.215Z,4.60
2018-03-07T22:45:20.247Z,4.50
2018-03-07T22:47:52.548Z,4.50
2018-03-07T22:50:23.779Z,4.40
2018-03-07T22:52:54.648Z,4.50
2018-03-07T22:55:25.565Z,4.40
2018-03-07T22:57:58.316Z,4.40
2018-03-07T23:00:33.197Z,4.50
2018-03-07T23:03:04.340Z,4.40
2018-03-07T23:05:35.667Z,4.50
2018-03-07T23:08:06.626Z,4.40
2018-03-07T23:10:37.586Z,4.40
2018-03-07T23:13:08.724Z,4.40
2018-03-07T23:15:39.800Z,4.40
2018-03-07T23:18:11.834Z,4.40
2018-03-07T23:20:42.962Z,4.30
2018-03-07T23:23:14.128Z,4.30
2018-03-07T23:25:46.022Z,4.20
2018-03-07T23:28:18.275Z,4.30
2018-03-07T23:30:50.170Z,4.20
2018-03-07T23:33:21.465Z,4.30
2018-03-07T23:35:53.658Z,4.20
2018-03-07T23:38:24.654Z,4.20
2018-03-07T23:40:55.830Z,4.30
2018-03-07T23:43:28.004Z,4.20
2018-03-07T23:45:59.357Z,4.10
2018-03-07T23:48:31.865Z,4.30
2018-03-07T23:51:03.089Z,4.20
2018-03-07T23:53:35.040Z,4.30
2018-03-07T23:56:07.226Z,4.30
2018-03-07T23:58:40.568Z,4.20
